Fayetteville Regional Grannis Field
KFAY : now visible

Airfield :











YOU CAN JOIN US ON...

 
LOGIN :

Register | Disclaimer

   EN    FR    IT 

 









Legend :    VFR   Marginal VFR   IFR   Intensive IFR   Very Intensive IFR
Visi :
Ceiling :
>= 8 km
>= 3000ft
5 to 8 km
1000 to 3000 ft
1500m to 5 km
500 to 1000 ft
800 to 1500m
200 to 500 ft
< 800m
< 200 ft
Symbols :   Thunderstorms  Fog  Heavy snow  Heavy precipitations  Wind > 20 kt






- Airport Elevation : 189 ft
- IATA code : FAY


KFAY - Fayetteville Regional Grannis Field

CURRENT METAR :
  • 271801Z 19014KT 10SM SCT010 BKN016 OVC031 22/21 A2967 RMK AO2 T02220211

EXPIRED METARs :
  • 271753Z 18013G24KT 10SM BKN010 BKN018 OVC032 22/21 A2968 RMK AO2 RAE50 SLP043 P0000 60003 T02220211 10222 20144 58048
  • 271734Z 19015G23KT 10SM -RA BKN013 OVC019 22/21 A2969 RMK AO2 P0000 T02220211
  • 271727Z 18015G22KT 10SM -RA BKN015 OVC021 22/21 A2969 RMK AO2 P0000 T02220211
  • 271653Z 19014G22KT 10SM -RA BKN009 OVC017 22/21 A2972 RMK AO2 RAB04E15B35 PRESFR SLP060 P0001 T02170206
  • 271700Z 19013G21KT 10SM -RA BKN013 OVC020 22/21 A2972 RMK AO2 P0000 T02170206
  • 271609Z 18011KT 9SM -RA BKN009 OVC017 21/20 A2978 RMK AO2 RAB04 P0000 T02110200
  • 271602Z 18012KT 10SM BKN011 OVC019 21/20 A2978 RMK AO2 T02110200

TAF KFAY
Valid from the 27 at 18:00 until the 28 at 18:00 UTC


271725Z 2718/2818 19016G28KT 6SM -SHRA BKN015 OVC020
FM272030 22016G30KT P6SM SCT035 SCT040
FM280000 24014G24KT P6SM SCT030 SCT040
FM280300 25012G20KT P6SM SCT030 SCT040
FM280500 25008KT P6SM SCT030 SCT040
FM281400 28008KT P6SM BKN050
KZDC FIR / North America



MET'MAP, your aeronautical weather chart ! - Copyright ORBIFLY December 2007 - Disclaimer

ORBIFLY MET'MAP TEAM :

Programming & Development : Alexandra Zaïnal
Original concept : Baudouin d'Aumeries
Technical & hardware support : Manuel Goepfert
Assistance : Marc-Olivier Méhu




SOURCES & CREDITS :

   NOAA       Earth
Advisory